Megalon — 3ETX2 — position and weather

sailwx.info

Track history (hours):
 
Tides and Currents Weather Stations Pressure Air Temp Water Temp Dewpoint Dewpoint Depression Visibility Wind Speed Wind Dir Waves Ship Positions

Megalon

Last reported at 2016-Jun-27 06:15 UTC. Time now 2016-Jul-01 22:37 UTC.
Position S 05°18' E 010°42'.

Length 140 m; draft 6.4 m.

Type: Cargo ship. MMSI: 372427000.

Date/timePositionNaut miles runAvg speedWind from/ knotsBaromVisibWave heightAir tempDewpointWater temp
2016-Jun-27 06:15S 05°18' E 010°42'2212.7
2016-Jun-27 04:30S 05°37' E 010°30'  
2016-Jun-21 16:32S 34°09' E 018°04'  
2016-Jun-18 23:34S 30°19' E 031°00'1313.5
2016-Jun-18 22:33S 30°10' E 031°11'1413.6
2016-Jun-18 21:33S 30°06' E 031°26'1514.9
2016-Jun-18 20:33S 30°01' E 031°43'1514.5
2016-Jun-18 19:33S 29°57' E 031°59'1413.8
2016-Jun-18 18:34S 29°53' E 032°14'1414.0
2016-Jun-18 17:32S 29°48' E 032°30'  
Track history (hours):
 
Tides and Currents Weather Stations Pressure Air Temp Water Temp Dewpoint Dewpoint Depression Visibility Wind Speed Wind Dir Waves Ship Positions

Megalon

Last reported at 2016-Jun-27 06:15 UTC. Time now 2016-Jul-01 22:37 UTC.
Position S 05°18' E 010°42'.

Length 140 m; draft 6.4 m.

Type: Cargo ship. MMSI: 372427000.

Date/timePositionNaut miles runAvg speedWind from/ knotsBaromVisibWave heightAir tempDewpointWater temp
2016-Jun-27 06:15S 05°18' E 010°42'2212.7
2016-Jun-27 04:30S 05°37' E 010°30'  
2016-Jun-21 16:32S 34°09' E 018°04'  
2016-Jun-18 23:34S 30°19' E 031°00'1313.5
2016-Jun-18 22:33S 30°10' E 031°11'1413.6
2016-Jun-18 21:33S 30°06' E 031°26'1514.9
2016-Jun-18 20:33S 30°01' E 031°43'1514.5
2016-Jun-18 19:33S 29°57' E 031°59'1413.8
2016-Jun-18 18:34S 29°53' E 032°14'1414.0
2016-Jun-18 17:32S 29°48' E 032°30'  

Dump ship's entire track history